Flight Number: AVA5101 Duration: 7:00
Departure: Lisboa Portela (LPPT) at 16:00 Distance: 3124.82 Nm
Arrival: Luanda (FNLU) at 23:00 Equipment: B757-200

Weather Information
Lisboa / Portela, Portugal (LPPT) 38-46N 009-08W 123M May 25, 2024 - 11:00 PM EDT / 2024.05.26 0300 UTC
Wind: from the NNW (330 degrees) at 8 MPH (7 KT) (direction variable):0
Visibility: greater than 7 mile(s):0
Sky conditions: mostly cloudy Temperature: 62 F (17 C) Dew Point: 59 F (15 C) Relative Humidity: 88% Pressure (altimeter): 30.06 in. Hg (1018 hPa)
ob: LPPT 260300Z 33007KT 280V360 9999 FEW006 BKN011 17/15 Q1018 cycle: 3
Sunrise: 05:18 Sunset: 19:48 (UTC)

Luanda, Angola (FNLU) 08-51S 013-14E 70M May 25, 2024 - 11:00 PM EDT / 2024.05.26 0300 UTC
Wind: Variable at 3 MPH (3 KT):0
Visibility: 5 mile(s):0
Sky conditions: mostly clear Temperature: 77 F (25 C) Dew Point: 73 F (23 C) Relative Humidity: 88% Pressure (altimeter): 29.83 in. Hg (1010 hPa)
ob: FNLU 260300Z VRB03KT 9000 FEW022 25/23 Q1010 NOSIG cycle: 3
Sunrise: 05:17 Sunset: 16:51 (UTC)

TAF:2024/05/25 18:03 TAF TAF FNLU 251700Z 2518/2624 26010KT 9999 FEW020 TEMPO 2601/2607 VRB02KT

Previous Pireps for this route
Date Flightnr Aircraft Flight time Fuel used Landing rate On time
2016-03-12AVX9747FB747-400F06.54144366-301Charter
2017-10-08AVA5101B757-2007.55600000Yes
2018-01-14AVA5101B757-2007.20420000Yes
(pireps marked green are flown by you)

Route map